sensor_id;sensor_type;location;lat;lon;timestamp;pressure;altitude;pressure_sealevel;temperature;humidity
76637;BME280;65532;52.124;5.480;2023-09-30T00:02:20;102457.19;;;10.47;73.76
76637;BME280;65532;52.124;5.480;2023-09-30T00:04:46;102460.34;;;10.50;73.24
76637;BME280;65532;52.124;5.480;2023-09-30T00:07:13;102469.31;;;10.51;73.20
76637;BME280;65532;52.124;5.480;2023-09-30T00:09:39;102479.31;;;10.50;72.90
76637;BME280;65532;52.124;5.480;2023-09-30T00:12:06;102483.06;;;10.49;72.99
76637;BME280;65532;52.124;5.480;2023-09-30T00:14:33;102478.47;;;10.50;71.79
76637;BME280;65532;52.124;5.480;2023-09-30T00:17:00;102483.69;;;10.52;71.75
76637;BME280;65532;52.124;5.480;2023-09-30T00:19:26;102477.25;;;10.53;71.37
76637;BME280;65532;52.124;5.480;2023-09-30T00:21:53;102480.59;;;10.55;71.33
76637;BME280;65532;52.124;5.480;2023-09-30T00:24:19;102466.88;;;10.56;70.96
76637;BME280;65532;52.124;5.480;2023-09-30T00:26:46;102473.31;;;10.55;70.57
76637;BME280;65532;52.124;5.480;2023-09-30T00:29:13;102465.19;;;10.55;70.09
76637;BME280;65532;52.124;5.480;2023-09-30T00:31:40;102472.69;;;10.53;70.43
76637;BME280;65532;52.124;5.480;2023-09-30T00:34:07;102477.91;;;10.55;69.47
76637;BME280;65532;52.124;5.480;2023-09-30T00:36:35;102470.63;;;10.55;68.53
76637;BME280;65532;52.124;5.480;2023-09-30T00:39:01;102475.19;;;10.55;67.51
76637;BME280;65532;52.124;5.480;2023-09-30T00:41:28;102479.97;;;10.53;67.30
76637;BME280;65532;52.124;5.480;2023-09-30T00:43:55;102491.63;;;10.53;67.01
76637;BME280;65532;52.124;5.480;2023-09-30T00:46:27;102494.91;;;10.48;67.26
76637;BME280;65532;52.124;5.480;2023-09-30T00:48:56;102493.25;;;10.47;66.82
76637;BME280;65532;52.124;5.480;2023-09-30T00:51:23;102497.44;;;10.50;66.12
76637;BME280;65532;52.124;5.480;2023-09-30T00:53:52;102499.56;;;10.55;63.96
76637;BME280;65532;52.124;5.480;2023-09-30T00:56:19;102504.03;;;10.62;61.66
76637;BME280;65532;52.124;5.480;2023-09-30T00:58:47;102507.47;;;10.71;58.53
76637;BME280;65532;52.124;5.480;2023-09-30T01:01:18;102512.13;;;10.77;56.06
76637;BME280;65532;52.124;5.480;2023-09-30T01:03:46;102512.38;;;10.82;53.53
76637;BME280;65532;52.124;5.480;2023-09-30T01:06:13;102511.34;;;10.83;52.35
76637;BME280;65532;52.124;5.480;2023-09-30T01:08:40;102510.13;;;10.86;51.08
76637;BME280;65532;52.124;5.480;2023-09-30T01:11:07;102514.31;;;10.88;50.47
76637;BME280;65532;52.124;5.480;2023-09-30T01:13:36;102510.97;;;10.86;50.71
76637;BME280;65532;52.124;5.480;2023-09-30T01:16:05;102506.59;;;10.85;51.04
76637;BME280;65532;52.124;5.480;2023-09-30T01:18:32;102512.38;;;10.82;52.05
76637;BME280;65532;52.124;5.480;2023-09-30T01:21:01;102513.81;;;10.78;52.91
76637;BME280;65532;52.124;5.480;2023-09-30T01:23:34;102514.66;;;10.78;53.21
76637;BME280;65532;52.124;5.480;2023-09-30T01:26:09;102513.72;;;10.71;54.57
76637;BME280;65532;52.124;5.480;2023-09-30T01:28:36;102525.53;;;10.64;54.69
76637;BME280;65532;52.124;5.480;2023-09-30T01:31:03;102531.97;;;10.63;54.21
76637;BME280;65532;52.124;5.480;2023-09-30T01:33:31;102538.22;;;10.63;54.33
76637;BME280;65532;52.124;5.480;2023-09-30T01:35:59;102534.03;;;10.61;54.40
76637;BME280;65532;52.124;5.480;2023-09-30T01:38:27;102529.66;;;10.60;55.00
76637;BME280;65532;52.124;5.480;2023-09-30T01:40:53;102532.34;;;10.60;55.07
76637;BME280;65532;52.124;5.480;2023-09-30T01:43:22;102529.44;;;10.61;54.79
76637;BME280;65532;52.124;5.480;2023-09-30T01:45:49;102535.31;;;10.65;54.58
76637;BME280;65532;52.124;5.480;2023-09-30T01:48:16;102527.00;;;10.66;54.05
76637;BME280;65532;52.124;5.480;2023-09-30T01:50:43;102524.09;;;10.68;53.86
76637;BME280;65532;52.124;5.480;2023-09-30T01:53:09;102524.09;;;10.68;54.02
76637;BME280;65532;52.124;5.480;2023-09-30T01:55:36;102525.13;;;10.67;54.04
76637;BME280;65532;52.124;5.480;2023-09-30T01:58:03;102532.63;;;10.65;54.61
76637;BME280;65532;52.124;5.480;2023-09-30T02:00:29;102518.22;;;10.64;54.87
76637;BME280;65532;52.124;5.480;2023-09-30T02:02:57;102513.66;;;10.65;54.98
76637;BME280;65532;52.124;5.480;2023-09-30T02:05:24;102506.56;;;10.64;54.83
76637;BME280;65532;52.124;5.480;2023-09-30T02:07:50;102501.97;;;10.64;54.74
76637;BME280;65532;52.124;5.480;2023-09-30T02:10:17;102509.47;;;10.62;54.66
76637;BME280;65532;52.124;5.480;2023-09-30T02:12:47;102514.03;;;10.62;54.81
76637;BME280;65532;52.124;5.480;2023-09-30T02:15:15;102516.47;;;10.57;55.53
76637;BME280;65532;52.124;5.480;2023-09-30T02:17:42;102523.47;;;10.51;56.10
76637;BME280;65532;52.124;5.480;2023-09-30T02:20:13;102525.72;;;10.47;56.61
76637;BME280;65532;52.124;5.480;2023-09-30T02:22:43;102523.41;;;10.44;57.25
76637;BME280;65532;52.124;5.480;2023-09-30T02:25:13;102512.09;;;10.41;58.23
76637;BME280;65532;52.124;5.480;2023-09-30T02:27:41;102516.03;;;10.38;58.78
76637;BME280;65532;52.124;5.480;2023-09-30T02:30:09;102513.50;;;10.37;58.75
76637;BME280;65532;52.124;5.480;2023-09-30T02:32:40;102521.63;;;10.37;58.01
76637;BME280;65532;52.124;5.480;2023-09-30T02:35:08;102516.66;;;10.40;56.39
76637;BME280;65532;52.124;5.480;2023-09-30T02:37:37;102522.63;;;10.50;53.36
76637;BME280;65532;52.124;5.480;2023-09-30T02:40:05;102509.00;;;10.59;49.83
76637;BME280;65532;52.124;5.480;2023-09-30T02:42:39;102520.56;;;10.67;46.48
76637;BME280;65532;52.124;5.480;2023-09-30T02:45:07;102511.84;;;10.72;43.08
76637;BME280;65532;52.124;5.480;2023-09-30T02:47:36;102500.25;;;10.78;40.08
76637;BME280;65532;52.124;5.480;2023-09-30T02:50:05;102511.75;;;10.80;37.74
76637;BME280;65532;52.124;5.480;2023-09-30T02:52:32;102502.19;;;10.84;35.69
76637;BME280;65532;52.124;5.480;2023-09-30T02:55:00;102508.91;;;10.88;33.97
76637;BME280;65532;52.124;5.480;2023-09-30T02:57:26;102501.63;;;10.89;33.63
76637;BME280;65532;52.124;5.480;2023-09-30T02:59:56;102503.13;;;10.91;32.73
76637;BME280;65532;52.124;5.480;2023-09-30T03:02:23;102506.47;;;10.93;32.86
76637;BME280;65532;52.124;5.480;2023-09-30T03:04:50;102504.59;;;10.94;32.99
76637;BME280;65532;52.124;5.480;2023-09-30T03:07:20;102501.69;;;10.95;32.20
76637;BME280;65532;52.124;5.480;2023-09-30T03:09:47;102504.03;;;10.98;31.67
76637;BME280;65532;52.124;5.480;2023-09-30T03:12:14;102505.69;;;10.99;31.83
76637;BME280;65532;52.124;5.480;2023-09-30T03:14:40;102509.88;;;11.02;31.13
76637;BME280;65532;52.124;5.480;2023-09-30T03:17:07;102508.00;;;11.02;31.29
76637;BME280;65532;52.124;5.480;2023-09-30T03:19:38;102502.59;;;11.02;31.29
76637;BME280;65532;52.124;5.480;2023-09-30T03:22:05;102501.41;;;11.05;30.97
76637;BME280;65532;52.124;5.480;2023-09-30T03:24:38;102499.31;;;11.07;31.27
76637;BME280;65532;52.124;5.480;2023-09-30T03:27:05;102496.22;;;11.10;31.31
76637;BME280;65532;52.124;5.480;2023-09-30T03:29:32;102499.56;;;11.12;31.34
76637;BME280;65532;52.124;5.480;2023-09-30T03:31:58;102503.75;;;11.15;31.57
76637;BME280;65532;52.124;5.480;2023-09-30T03:34:25;102496.28;;;11.17;31.88
76637;BME280;65532;52.124;5.480;2023-09-30T03:36:51;102497.94;;;11.18;32.12
76637;BME280;65532;52.124;5.480;2023-09-30T03:39:21;102494.19;;;11.19;32.52
76637;BME280;65532;52.124;5.480;2023-09-30T03:41:56;102498.59;;;11.20;32.83
76637;BME280;65532;52.124;5.480;2023-09-30T03:44:24;102502.81;;;11.22;32.94
76637;BME280;65532;52.124;5.480;2023-09-30T03:46:51;102501.78;;;11.23;33.13
76637;BME280;65532;52.124;5.480;2023-09-30T03:49:19;102502.63;;;11.24;33.46
76637;BME280;65532;52.124;5.480;2023-09-30T03:51:48;102504.28;;;11.25;33.97
76637;BME280;65532;52.124;5.480;2023-09-30T03:54:17;102509.72;;;11.25;34.17
76637;BME280;65532;52.124;5.480;2023-09-30T03:56:45;102507.00;;;11.25;35.33
76637;BME280;65532;52.124;5.480;2023-09-30T03:59:13;102500.94;;;11.23;35.68
76637;BME280;65532;52.124;5.480;2023-09-30T04:01:39;102500.94;;;11.23;36.41
76637;BME280;65532;52.124;5.480;2023-09-30T04:04:07;102503.00;;;11.21;36.75
76637;BME280;65532;52.124;5.480;2023-09-30T04:06:36;102495.88;;;11.20;36.94
76637;BME280;65532;52.124;5.480;2023-09-30T04:09:05;102497.94;;;11.18;37.77
76637;BME280;65532;52.124;5.480;2023-09-30T04:11:39;102510.47;;;11.19;37.66
76637;BME280;65532;52.124;5.480;2023-09-30T04:14:06;102503.38;;;11.18;38.18
76637;BME280;65532;52.124;5.480;2023-09-30T04:16:34;102508.16;;;11.16;38.27
76637;BME280;65532;52.124;5.480;2023-09-30T04:19:02;102510.88;;;11.16;38.20
76637;BME280;65532;52.124;5.480;2023-09-30T04:21:29;102506.47;;;11.15;37.92
76637;BME280;65532;52.124;5.480;2023-09-30T04:23:58;102507.50;;;11.14;38.47
76637;BME280;65532;52.124;5.480;2023-09-30T04:26:25;102509.19;;;11.15;38.83
76637;BME280;65532;52.124;5.480;2023-09-30T04:28:52;102509.38;;;11.13;39.48
76637;BME280;65532;52.124;5.480;2023-09-30T04:31:20;102504.16;;;11.12;39.58
76637;BME280;65532;52.124;5.480;2023-09-30T04:33:48;102509.56;;;11.12;39.61
76637;BME280;65532;52.124;5.480;2023-09-30T04:36:17;102513.97;;;11.13;39.66
76637;BME280;65532;52.124;5.480;2023-09-30T04:38:44;102522.94;;;11.13;40.03
76637;BME280;65532;52.124;5.480;2023-09-30T04:41:10;102523.97;;;11.12;40.06
76637;BME280;65532;52.124;5.480;2023-09-30T04:43:37;102521.25;;;11.12;40.40
76637;BME280;65532;52.124;5.480;2023-09-30T04:46:06;102525.00;;;11.11;40.83
76637;BME280;65532;52.124;5.480;2023-09-30T04:48:36;102524.16;;;11.10;40.69
76637;BME280;65532;52.124;5.480;2023-09-30T04:51:06;102520.63;;;11.10;40.54
76637;BME280;65532;52.124;5.480;2023-09-30T04:53:33;102526.22;;;11.08;40.64
76637;BME280;65532;52.124;5.480;2023-09-30T04:56:00;102523.53;;;11.08;39.71
76637;BME280;65532;52.124;5.480;2023-09-30T04:58:27;102529.13;;;11.07;39.70
76637;BME280;65532;52.124;5.480;2023-09-30T05:00:56;102527.47;;;11.06;39.37
76637;BME280;65532;52.124;5.480;2023-09-30T05:03:23;102539.16;;;11.06;39.19
76637;BME280;65532;52.124;5.480;2023-09-30T05:05:52;102539.16;;;11.06;38.08
76637;BME280;65532;52.124;5.480;2023-09-30T05:08:23;102537.47;;;11.05;38.53
76637;BME280;65532;52.124;5.480;2023-09-30T05:10:50;102544.94;;;11.03;38.72
76637;BME280;65532;52.124;5.480;2023-09-30T05:13:16;102554.09;;;11.02;38.79
76637;BME280;65532;52.124;5.480;2023-09-30T05:15:43;102547.00;;;11.01;39.01
76637;BME280;65532;52.124;5.480;2023-09-30T05:18:10;102545.72;;;10.97;39.16
76637;BME280;65532;52.124;5.480;2023-09-30T05:20:37;102538.59;;;10.96;39.49
76637;BME280;65532;52.124;5.480;2023-09-30T05:23:05;102532.94;;;10.91;41.01
76637;BME280;65532;52.124;5.480;2023-09-30T05:25:33;102530.56;;;10.88;41.19
76637;BME280;65532;52.124;5.480;2023-09-30T05:28:00;102536.19;;;10.87;41.26
76637;BME280;65532;52.124;5.480;2023-09-30T05:30:26;102536.59;;;10.84;41.68
76637;BME280;65532;52.124;5.480;2023-09-30T05:32:53;102543.22;;;10.81;41.36
76637;BME280;65532;52.124;5.480;2023-09-30T05:35:20;102540.91;;;10.78;41.00
76637;BME280;65532;52.124;5.480;2023-09-30T05:37:48;102542.97;;;10.76;40.59
76637;BME280;65532;52.124;5.480;2023-09-30T05:40:19;102553.31;;;10.72;40.97
76637;BME280;65532;52.124;5.480;2023-09-30T05:42:50;102548.28;;;10.69;40.73
76637;BME280;65532;52.124;5.480;2023-09-30T05:45:17;102547.84;;;10.66;40.23
76637;BME280;65532;52.124;5.480;2023-09-30T05:47:43;102550.34;;;10.67;39.01
76637;BME280;65532;52.124;5.480;2023-09-30T05:50:11;102553.25;;;10.66;38.07
76637;BME280;65532;52.124;5.480;2023-09-30T05:52:44;102556.59;;;10.68;36.58
76637;BME280;65532;52.124;5.480;2023-09-30T05:55:13;102540.34;;;10.68;35.01
76637;BME280;65532;52.124;5.480;2023-09-30T05:57:41;102541.19;;;10.68;32.97
76637;BME280;65532;52.124;5.480;2023-09-30T06:00:11;102536.63;;;10.69;31.39
76637;BME280;65532;52.124;5.480;2023-09-30T06:02:41;102548.28;;;10.69;29.41
76637;BME280;65532;52.124;5.480;2023-09-30T06:05:08;102548.28;;;10.69;28.49
76637;BME280;65532;52.124;5.480;2023-09-30T06:07:35;102544.34;;;10.72;26.75
76637;BME280;65532;52.124;5.480;2023-09-30T06:10:01;102550.44;;;10.74;25.11
76637;BME280;65532;52.124;5.480;2023-09-30T06:12:29;102554.66;;;10.76;22.60
76637;BME280;65532;52.124;5.480;2023-09-30T06:14:56;102561.75;;;10.77;21.26
76637;BME280;65532;52.124;5.480;2023-09-30T06:17:23;102553.03;;;10.82;18.83
76637;BME280;65532;52.124;5.480;2023-09-30T06:19:49;102554.31;;;10.86;16.92
76637;BME280;65532;52.124;5.480;2023-09-30T06:22:16;102541.91;;;10.92;15.67
76637;BME280;65532;52.124;5.480;2023-09-30T06:24:43;102545.72;;;10.97;14.72
76637;BME280;65532;52.124;5.480;2023-09-30T06:27:10;102552.41;;;11.01;15.25
76637;BME280;65532;52.124;5.480;2023-09-30T06:29:39;102551.84;;;11.06;16.31
76637;BME280;65532;52.124;5.480;2023-09-30T06:32:08;102547.53;;;11.12;16.05
76637;BME280;65532;52.124;5.480;2023-09-30T06:34:35;102547.59;;;11.18;16.42
76637;BME280;65532;52.124;5.480;2023-09-30T06:37:02;102558.13;;;11.28;16.66
76637;BME280;65532;52.124;5.480;2023-09-30T06:39:28;102574.91;;;11.38;17.54
76637;BME280;65532;52.124;5.480;2023-09-30T06:41:55;102579.16;;;11.47;19.85
76637;BME280;65532;52.124;5.480;2023-09-30T06:44:22;102575.03;;;11.51;23.12
76637;BME280;65532;52.124;5.480;2023-09-30T06:46:51;102578.44;;;11.60;25.22
76637;BME280;65532;52.124;5.480;2023-09-30T06:49:18;102586.47;;;11.68;27.36
76637;BME280;65532;52.124;5.480;2023-09-30T06:51:44;102580.69;;;11.78;27.53
76637;BME280;65532;52.124;5.480;2023-09-30T06:54:11;102590.22;;;11.88;29.13
76637;BME280;65532;52.124;5.480;2023-09-30T06:56:37;102604.25;;;11.98;31.06
76637;BME280;65532;52.124;5.480;2023-09-30T06:59:04;102594.75;;;12.09;32.90
76637;BME280;65532;52.124;5.480;2023-09-30T07:01:32;102596.94;;;12.20;35.10
76637;BME280;65532;52.124;5.480;2023-09-30T07:03:59;102601.97;;;12.30;38.00
76637;BME280;65532;52.124;5.480;2023-09-30T07:06:26;102610.25;;;12.91;17.40
76637;BME280;65532;52.124;5.480;2023-09-30T07:08:53;102611.31;;;14.24;41.28
76637;BME280;65532;52.124;5.480;2023-09-30T07:11:29;102615.22;;;15.19;94.44
76637;BME280;65532;52.124;5.480;2023-09-30T07:13:58;102616.69;;;15.84;100.00
76637;BME280;65532;52.124;5.480;2023-09-30T07:16:25;102628.22;;;16.55;100.00
76637;BME280;65532;52.124;5.480;2023-09-30T07:18:52;102622.16;;;17.08;100.00
76637;BME280;65532;52.124;5.480;2023-09-30T07:21:18;102618.59;;;17.37;100.00
76637;BME280;65532;52.124;5.480;2023-09-30T07:23:45;102626.84;;;17.60;99.64
76637;BME280;65532;52.124;5.480;2023-09-30T07:26:11;102624.13;;;18.02;96.98
76637;BME280;65532;52.124;5.480;2023-09-30T07:28:38;102631.28;;;18.50;93.52
76637;BME280;65532;52.124;5.480;2023-09-30T07:31:04;102631.09;;;18.92;90.80
76637;BME280;65532;52.124;5.480;2023-09-30T07:33:31;102637.69;;;19.19;88.18
76637;BME280;65532;52.124;5.480;2023-09-30T07:35:57;102631.50;;;19.40;86.56
76637;BME280;65532;52.124;5.480;2023-09-30T07:38:24;102637.50;;;19.66;84.22
76637;BME280;65532;52.124;5.480;2023-09-30T07:40:51;102643.34;;;19.86;83.07
76637;BME280;65532;52.124;5.480;2023-09-30T07:43:17;102639.34;;;20.11;81.13
76637;BME280;65532;52.124;5.480;2023-09-30T07:45:46;102636.31;;;20.29;79.47
76637;BME280;65532;52.124;5.480;2023-09-30T07:48:13;102636.00;;;20.42;78.67
76637;BME280;65532;52.124;5.480;2023-09-30T07:50:40;102645.25;;;20.75;77.79
76637;BME280;65532;52.124;5.480;2023-09-30T07:53:08;102643.09;;;20.77;75.30
76637;BME280;65532;52.124;5.480;2023-09-30T07:55:35;102649.16;;;20.79;75.51
76637;BME280;65532;52.124;5.480;2023-09-30T07:58:02;102647.91;;;20.86;75.15
76637;BME280;65532;52.124;5.480;2023-09-30T08:00:29;102663.44;;;21.19;74.24
76637;BME280;65532;52.124;5.480;2023-09-30T08:02:56;102659.56;;;21.37;72.90
76637;BME280;65532;52.124;5.480;2023-09-30T08:05:23;102651.13;;;21.49;72.00
76637;BME280;65532;52.124;5.480;2023-09-30T08:07:49;102657.25;;;21.56;71.22
76637;BME280;65532;52.124;5.480;2023-09-30T08:10:16;102651.59;;;21.68;70.61
76637;BME280;65532;52.124;5.480;2023-09-30T08:12:43;102639.34;;;21.86;70.05
76637;BME280;65532;52.124;5.480;2023-09-30T08:15:12;102651.72;;;21.51;69.76
76637;BME280;65532;52.124;5.480;2023-09-30T08:17:40;102640.78;;;20.69;70.95
76637;BME280;65532;52.124;5.480;2023-09-30T08:20:07;102639.09;;;19.95;73.41
76637;BME280;65532;52.124;5.480;2023-09-30T08:22:35;102634.09;;;19.47;76.51
76637;BME280;65532;52.124;5.480;2023-09-30T08:25:02;102638.84;;;19.23;78.03
76637;BME280;65532;52.124;5.480;2023-09-30T08:27:29;102630.50;;;19.30;79.52
76637;BME280;65532;52.124;5.480;2023-09-30T08:29:56;102623.16;;;19.35;79.16
76637;BME280;65532;52.124;5.480;2023-09-30T08:32:22;102613.69;;;19.43;79.22
76637;BME280;65532;52.124;5.480;2023-09-30T08:34:49;102619.16;;;19.55;79.16
76637;BME280;65532;52.124;5.480;2023-09-30T08:37:16;102628.94;;;19.51;78.83
76637;BME280;65532;52.124;5.480;2023-09-30T08:39:43;102636.84;;;19.47;80.51
76637;BME280;65532;52.124;5.480;2023-09-30T08:42:10;102628.91;;;19.62;80.19
76637;BME280;65532;52.124;5.480;2023-09-30T08:44:40;102637.09;;;19.74;80.09
76637;BME280;65532;52.124;5.480;2023-09-30T08:47:07;102645.94;;;19.76;79.17
76637;BME280;65532;52.124;5.480;2023-09-30T08:49:37;102650.00;;;19.73;78.91
76637;BME280;65532;52.124;5.480;2023-09-30T08:52:09;102645.00;;;19.87;78.70
76637;BME280;65532;52.124;5.480;2023-09-30T08:54:37;102649.84;;;19.97;78.04
76637;BME280;65532;52.124;5.480;2023-09-30T08:57:04;102648.25;;;20.01;78.09
76637;BME280;65532;52.124;5.480;2023-09-30T08:59:31;102636.03;;;20.09;78.00
76637;BME280;65532;52.124;5.480;2023-09-30T09:02:01;102639.34;;;20.11;77.96
76637;BME280;65532;52.124;5.480;2023-09-30T09:04:28;102647.66;;;20.16;78.25
76637;BME280;65532;52.124;5.480;2023-09-30T09:06:54;102651.44;;;20.10;77.61
76637;BME280;65532;52.124;5.480;2023-09-30T09:09:23;102646.50;;;20.12;77.64
76637;BME280;65532;52.124;5.480;2023-09-30T09:11:50;102653.69;;;20.13;77.57
76637;BME280;65532;52.124;5.480;2023-09-30T09:14:18;102651.34;;;20.21;77.58
76637;BME280;65532;52.124;5.480;2023-09-30T09:16:52;102659.16;;;20.29;77.85
76637;BME280;65532;52.124;5.480;2023-09-30T09:19:20;102668.44;;;20.23;78.13
76637;BME280;65532;52.124;5.480;2023-09-30T09:21:55;102671.50;;;20.27;77.35
76637;BME280;65532;52.124;5.480;2023-09-30T09:24:33;102660.84;;;20.14;77.79
76637;BME280;65532;52.124;5.480;2023-09-30T09:27:11;102678.50;;;20.18;77.91
76637;BME280;65532;52.124;5.480;2023-09-30T09:29:39;102689.84;;;20.38;77.83
76637;BME280;65532;52.124;5.480;2023-09-30T09:32:07;102695.19;;;20.61;77.64
76637;BME280;65532;52.124;5.480;2023-09-30T09:34:35;102700.03;;;20.54;77.51
76637;BME280;65532;52.124;5.480;2023-09-30T09:37:22;102694.09;;;20.62;76.65
76637;BME280;65532;52.124;5.480;2023-09-30T09:39:56;102701.03;;;20.48;76.48
76637;BME280;65532;52.124;5.480;2023-09-30T09:42:31;102691.53;;;20.22;76.58
76637;BME280;65532;52.124;5.480;2023-09-30T09:45:04;102698.59;;;20.35;77.53
76637;BME280;65532;52.124;5.480;2023-09-30T09:47:32;102700.88;;;20.55;77.58
76637;BME280;65532;52.124;5.480;2023-09-30T09:50:03;102697.50;;;20.70;76.48
76637;BME280;65532;52.124;5.480;2023-09-30T09:52:30;102693.63;;;20.87;75.91
76637;BME280;65532;52.124;5.480;2023-09-30T09:54:58;102695.47;;;20.82;75.09
76637;BME280;65532;52.124;5.480;2023-09-30T09:57:25;102702.16;;;20.86;75.14
76637;BME280;65532;52.124;5.480;2023-09-30T09:59:53;102701.72;;;20.77;73.89
76637;BME280;65532;52.124;5.480;2023-09-30T10:02:25;102695.19;;;20.61;74.80
76637;BME280;65532;52.124;5.480;2023-09-30T10:04:55;102706.16;;;20.78;75.95
76637;BME280;65532;52.124;5.480;2023-09-30T10:07:26;102705.78;;;20.70;75.60
76637;BME280;65532;52.124;5.480;2023-09-30T10:09:55;102712.53;;;20.45;75.13
76637;BME280;65532;52.124;5.480;2023-09-30T10:12:26;102704.53;;;20.27;75.86
76637;BME280;65532;52.124;5.480;2023-09-30T10:14:53;102702.38;;;20.46;76.69
76637;BME280;65532;52.124;5.480;2023-09-30T10:17:20;102701.69;;;20.72;75.52
76637;BME280;65532;52.124;5.480;2023-09-30T10:20:06;102688.94;;;20.88;75.19
76637;BME280;65532;52.124;5.480;2023-09-30T10:22:33;102682.41;;;20.94;73.46
76637;BME280;65532;52.124;5.480;2023-09-30T10:25:00;102676.56;;;21.12;73.38
76637;BME280;65532;52.124;5.480;2023-09-30T10:27:28;102672.88;;;21.23;73.87
76637;BME280;65532;52.124;5.480;2023-09-30T10:30:05;102672.38;;;21.05;72.72
76637;BME280;65532;52.124;5.480;2023-09-30T10:35:41;102669.00;;;20.59;71.75
76637;BME280;65532;52.124;5.480;2023-09-30T10:41:01;102654.53;;;21.12;70.81
76637;BME280;65532;52.124;5.480;2023-09-30T10:43:36;102653.22;;;21.37;68.79
76637;BME280;65532;52.124;5.480;2023-09-30T10:48:52;102658.25;;;21.45;67.73
76637;BME280;65532;52.124;5.480;2023-09-30T10:51:20;102664.72;;;21.12;66.80
76637;BME280;65532;52.124;5.480;2023-09-30T10:53:52;102666.78;;;20.78;68.05
76637;BME280;65532;52.124;5.480;2023-09-30T10:56:23;102665.84;;;20.50;69.26
76637;BME280;65532;52.124;5.480;2023-09-30T10:58:51;102663.00;;;20.45;69.84
76637;BME280;65532;52.124;5.480;2023-09-30T11:01:21;102662.50;;;20.48;69.10
76637;BME280;65532;52.124;5.480;2023-09-30T11:03:49;102659.50;;;20.33;69.43
76637;BME280;65532;52.124;5.480;2023-09-30T11:06:20;102661.03;;;20.24;69.32
76637;BME280;65532;52.124;5.480;2023-09-30T11:08:56;102657.69;;;20.22;70.17
76637;BME280;65532;52.124;5.480;2023-09-30T11:11:36;102649.31;;;20.50;69.94
76637;BME280;65532;52.124;5.480;2023-09-30T11:14:16;102651.66;;;20.58;69.79
76637;BME280;65532;52.124;5.480;2023-09-30T11:16:43;102656.38;;;20.63;69.10
76637;BME280;65532;52.124;5.480;2023-09-30T11:19:11;102651.81;;;20.69;68.46
76637;BME280;65532;52.124;5.480;2023-09-30T11:21:41;102647.38;;;20.68;68.24
76637;BME280;65532;52.124;5.480;2023-09-30T11:24:09;102654.09;;;20.77;68.81
76637;BME280;65532;52.124;5.480;2023-09-30T11:26:36;102653.41;;;20.86;68.99
76637;BME280;65532;52.124;5.480;2023-09-30T11:29:10;102651.28;;;21.15;68.90
76637;BME280;65532;52.124;5.480;2023-09-30T11:31:47;102640.00;;;21.39;68.40
76637;BME280;65532;52.124;5.480;2023-09-30T11:34:18;102642.44;;;21.35;67.16
76637;BME280;65532;52.124;5.480;2023-09-30T11:36:51;102638.00;;;21.12;66.38
76637;BME280;65532;52.124;5.480;2023-09-30T11:39:30;102631.44;;;20.70;67.18
76637;BME280;65532;52.124;5.480;2023-09-30T11:41:57;102630.72;;;20.41;67.04
76637;BME280;65532;52.124;5.480;2023-09-30T11:44:25;102622.75;;;20.22;67.64
76637;BME280;65532;52.124;5.480;2023-09-30T11:49:38;102630.81;;;20.46;67.34
76637;BME280;65532;52.124;5.480;2023-09-30T11:52:09;102636.66;;;20.49;66.41
76637;BME280;65532;52.124;5.480;2023-09-30T11:54:41;102635.84;;;20.71;66.54
76637;BME280;65532;52.124;5.480;2023-09-30T11:57:14;102640.66;;;20.80;65.60
76637;BME280;65532;52.124;5.480;2023-09-30T11:59:42;102645.63;;;20.61;65.87
76637;BME280;65532;52.124;5.480;2023-09-30T12:02:10;102645.50;;;20.51;66.72
76637;BME280;65532;52.124;5.480;2023-09-30T12:04:41;102638.91;;;20.52;67.54
76637;BME280;65532;52.124;5.480;2023-09-30T12:07:08;102632.44;;;20.63;66.85
76637;BME280;65532;52.124;5.480;2023-09-30T12:09:35;102627.72;;;20.81;66.45
76637;BME280;65532;52.124;5.480;2023-09-30T12:12:04;102623.28;;;20.80;66.85
76637;BME280;65532;52.124;5.480;2023-09-30T12:14:31;102617.22;;;20.78;64.57
76637;BME280;65532;52.124;5.480;2023-09-30T12:16:58;102607.75;;;20.69;63.43
76637;BME280;65532;52.124;5.480;2023-09-30T12:19:25;102616.91;;;20.74;63.60
76637;BME280;65532;52.124;5.480;2023-09-30T12:21:53;102613.69;;;20.60;63.15
76637;BME280;65532;52.124;5.480;2023-09-30T12:24:20;102616.91;;;20.52;63.40
76637;BME280;65532;52.124;5.480;2023-09-30T12:26:49;102605.88;;;20.52;64.27
76637;BME280;65532;52.124;5.480;2023-09-30T12:29:19;102599.41;;;20.63;64.72
76637;BME280;65532;52.124;5.480;2023-09-30T12:31:50;102605.56;;;20.71;65.34
76637;BME280;65532;52.124;5.480;2023-09-30T12:34:20;102597.94;;;20.78;65.10
76637;BME280;65532;52.124;5.480;2023-09-30T12:36:46;102589.16;;;20.81;64.53
76637;BME280;65532;52.124;5.480;2023-09-30T12:39:14;102592.66;;;20.98;64.50
76637;BME280;65532;52.124;5.480;2023-09-30T12:41:44;102595.31;;;20.88;64.62
76637;BME280;65532;52.124;5.480;2023-09-30T12:44:12;102591.72;;;20.66;62.90
76637;BME280;65532;52.124;5.480;2023-09-30T12:46:39;102591.09;;;20.58;63.35
76637;BME280;65532;52.124;5.480;2023-09-30T12:49:07;102594.41;;;20.60;62.39
76637;BME280;65532;52.124;5.480;2023-09-30T12:51:35;102589.94;;;20.54;61.98
76637;BME280;65532;52.124;5.480;2023-09-30T12:54:02;102598.88;;;20.45;61.03
76637;BME280;65532;52.124;5.480;2023-09-30T12:56:29;102596.66;;;20.42;61.99
76637;BME280;65532;52.124;5.480;2023-09-30T12:58:57;102602.03;;;20.53;62.87
76637;BME280;65532;52.124;5.480;2023-09-30T13:01:24;102602.63;;;20.55;61.84
76637;BME280;65532;52.124;5.480;2023-09-30T13:03:51;102598.53;;;20.58;61.37
76637;BME280;65532;52.124;5.480;2023-09-30T13:06:19;102598.25;;;20.59;60.54
76637;BME280;65532;52.124;5.480;2023-09-30T13:08:45;102592.13;;;20.52;59.57